Terminal Aerodrome Forecast
Issued by NWS Shreveport, LA

Home | Current Version | Previous Version | Text Only | Print | Product List | Glossary On
Versions: 1 2 3 4 5 6 7 8 9 10 11 12 13 14 15 16 17 18 19
000
FTUS44 KSHV 252300
TAFTXK
TAF
KTXK 252340Z 2600/2624 16009KT P6SM SKC
     FM260400 17010KT P6SM SCT250
     FM260700 18009KT P6SM OVC250
     FM261200 15006KT P6SM OVC025
     FM261800 15009KT P6SM OVC015=

USA.gov is the U.S. government's official web portal to all federal, state and local government web resources and services.